Terminal Aerodrome Forecast
Issued by NWS Sterling, VA

Current Version | Previous Version | Text Only | Print | Product List | Glossary Off
Versions: 1 2 3 4 5 6 7 8 9 10 11 12 13 14 15 16 17 18 19 20 21 22 23

000
FTUS41 KLWX 261006 AAB
TAFDCA
TAF AMD
KDCA 261006Z 2610/2706 08011G20KT P6SM OVC015
     FM261200 08011G20KT P6SM OVC008
     FM261500 09010G18KT 3SM -DZ BKN008
     FM262100 09011G18KT 4SM -DZ BKN015
     FM270300 12009KT 4SM -DZ BKN035=

USA.gov is the U.S. government's official web portal to all federal, state and local government web resources and services.